createdAt,value
2023-07-25T00:00:57.163Z,99096.13
2023-07-25T00:01:59.546Z,99104.53
2023-07-25T00:03:04.042Z,99104.53
2023-07-25T00:04:06.494Z,99104.53
2023-07-25T00:05:09.723Z,99103.72
2023-07-25T00:06:12.810Z,99108.16
2023-07-25T00:07:15.298Z,99104.53
2023-07-25T00:08:17.712Z,99107.31
2023-07-25T00:09:20.320Z,99100.94
2023-07-25T00:10:22.992Z,99098.94
2023-07-25T00:11:26.897Z,99099.75
2023-07-25T00:12:29.298Z,99093.34
2023-07-25T00:13:32.368Z,99097.28
2023-07-25T00:14:36.197Z,99097.28
2023-07-25T00:15:39.452Z,99100.09
2023-07-25T00:16:41.869Z,99104.03
2023-07-25T00:17:44.406Z,99111.28
2023-07-25T00:18:47.144Z,99105.69
2023-07-25T00:19:49.623Z,99102.06
2023-07-25T00:20:52.124Z,99109.66
2023-07-25T00:21:54.761Z,99110.81
2023-07-25T00:22:57.207Z,99115.56
2023-07-25T00:23:59.976Z,99108.38
2023-07-25T00:25:02.359Z,99109.97
2023-07-25T00:26:04.730Z,99115.91
2023-07-25T00:27:07.135Z,99117.91
2023-07-25T00:28:09.946Z,99123.88
2023-07-25T00:29:12.566Z,99119.88
2023-07-25T00:30:15.188Z,99121.06
2023-07-25T00:31:17.994Z,99115.47
2023-07-25T00:32:20.423Z,99112.69
2023-07-25T00:33:22.800Z,99109.88
2023-07-25T00:34:25.297Z,99118.28
2023-07-25T00:35:27.703Z,99107.06
2023-07-25T00:36:30.181Z,99108.25
2023-07-25T00:37:33.038Z,99106.59
2023-07-25T00:38:35.873Z,99116.63
2023-07-25T00:39:38.224Z,99116.97
2023-07-25T00:40:41.016Z,99104.16
2023-07-25T00:41:43.846Z,99116.50
2023-07-25T00:42:46.148Z,99108.09
2023-07-25T00:43:48.573Z,99109.28
2023-07-25T00:44:51.499Z,99112.91
2023-07-25T00:45:54.288Z,99107.66
2023-07-25T00:46:56.703Z,99102.06
2023-07-25T00:47:59.220Z,99117.22
2023-07-25T00:49:02.420Z,99106.03
2023-07-25T00:50:05.161Z,99116.38
2023-07-25T00:51:09.045Z,99104.72
2023-07-25T00:52:11.552Z,99113.94
2023-07-25T00:53:15.887Z,99114.28
2023-07-25T00:54:18.582Z,99111.84
2023-07-25T00:55:21.080Z,99113.00
2023-07-25T00:56:24.639Z,99119.41
2023-07-25T00:57:27.039Z,99113.81
2023-07-25T00:58:31.031Z,99107.75
2023-07-25T00:59:33.389Z,99118.94
2023-07-25T01:00:38.596Z,99121.75
2023-07-25T01:01:41.161Z,99119.31
2023-07-25T01:02:43.615Z,99120.91
2023-07-25T01:03:46.620Z,99120.91
2023-07-25T01:04:49.269Z,99123.25
2023-07-25T01:05:52.413Z,99124.06
2023-07-25T01:06:55.337Z,99119.97
2023-07-25T01:07:57.816Z,99124.75
2023-07-25T01:09:02.672Z,99123.94
2023-07-25T01:10:05.414Z,99130.72
2023-07-25T01:11:07.713Z,99133.84
2023-07-25T01:12:12.045Z,99131.03
2023-07-25T01:13:14.467Z,99123.00
2023-07-25T01:14:16.840Z,99126.97
2023-07-25T01:15:19.624Z,99121.38
2023-07-25T01:16:26.177Z,99116.94
2023-07-25T01:17:28.943Z,99116.09
2023-07-25T01:18:31.578Z,99132.91
2023-07-25T01:19:35.372Z,99129.28
2023-07-25T01:20:38.121Z,99128.13
2023-07-25T01:21:40.841Z,99132.44
2023-07-25T01:22:44.955Z,99126.84
2023-07-25T01:23:47.872Z,99131.59
2023-07-25T01:24:50.238Z,99126.00
2023-07-25T01:25:52.611Z,99130.81
2023-07-25T01:26:56.659Z,99131.97
2023-07-25T01:27:59.083Z,99142.00
2023-07-25T01:29:01.536Z,99144.78
2023-07-25T01:30:04.421Z,99133.94
2023-07-25T01:31:06.883Z,99135.91
2023-07-25T01:32:10.102Z,99138.38
2023-07-25T01:33:12.503Z,99132.31
2023-07-25T01:34:15.344Z,99132.31
2023-07-25T01:35:17.695Z,99135.09
2023-07-25T01:36:20.105Z,99137.41
2023-07-25T01:37:24.074Z,99139.06
2023-07-25T01:38:26.487Z,99134.63
2023-07-25T01:39:28.902Z,99130.53
2023-07-25T01:40:31.336Z,99136.97
2023-07-25T01:41:33.949Z,99130.88
2023-07-25T01:42:36.597Z,99128.09
2023-07-25T01:43:39.227Z,99132.03
2023-07-25T01:44:41.561Z,99138.81
2023-07-25T01:45:43.926Z,99148.00
2023-07-25T01:46:46.432Z,99141.94
2023-07-25T01:47:48.889Z,99141.94
2023-07-25T01:48:52.933Z,99131.09
2023-07-25T01:49:55.651Z,99139.50
2023-07-25T01:50:58.041Z,99137.03
2023-07-25T01:52:00.401Z,99132.59
2023-07-25T01:53:02.956Z,99136.56
2023-07-25T01:54:05.673Z,99118.97
2023-07-25T01:55:10.589Z,99124.56
2023-07-25T01:56:12.979Z,99125.72
2023-07-25T01:57:15.469Z,99124.91
2023-07-25T01:58:17.989Z,99127.22
2023-07-25T01:59:20.476Z,99129.56
2023-07-25T02:00:22.830Z,99123.97
2023-07-25T02:01:26.869Z,99122.34
2023-07-25T02:02:32.177Z,99121.84
2023-07-25T02:03:34.695Z,99120.69
2023-07-25T02:04:36.995Z,99123.03
2023-07-25T02:05:39.752Z,99117.75
2023-07-25T02:06:43.931Z,99122.22
2023-07-25T02:07:46.997Z,99120.56
2023-07-25T02:08:49.460Z,99120.56
2023-07-25T02:09:51.821Z,99119.75
2023-07-25T02:10:56.742Z,99123.34
2023-07-25T02:11:59.958Z,99119.28
2023-07-25T02:13:02.372Z,99128.50
2023-07-25T02:14:04.729Z,99124.88
2023-07-25T02:15:07.938Z,99133.25
2023-07-25T02:16:10.452Z,99136.03
2023-07-25T02:17:13.177Z,99126.84
2023-07-25T02:18:16.701Z,99131.63
2023-07-25T02:19:19.637Z,99134.75
2023-07-25T02:20:23.569Z,99137.91
2023-07-25T02:21:26.694Z,99141.53
2023-07-25T02:22:29.104Z,99144.66
2023-07-25T02:23:32.569Z,99137.44
2023-07-25T02:24:35.603Z,99133.00
2023-07-25T02:25:38.021Z,99140.56
2023-07-25T02:26:40.298Z,99136.16
2023-07-25T02:27:42.733Z,99137.31
2023-07-25T02:28:45.062Z,99142.09
2023-07-25T02:29:47.590Z,99142.41
2023-07-25T02:30:50.017Z,99137.97
2023-07-25T02:31:53.525Z,99143.56
2023-07-25T02:32:57.415Z,99134.69
2023-07-25T02:34:01.560Z,99145.06
2023-07-25T02:35:04.898Z,99147.03
2023-07-25T02:36:07.333Z,99141.78
2023-07-25T02:37:09.700Z,99142.94
2023-07-25T02:38:12.280Z,99143.28
2023-07-25T02:39:19.781Z,99136.88
2023-07-25T02:40:22.637Z,99145.28
2023-07-25T02:41:25.175Z,99140.00
2023-07-25T02:42:27.590Z,99133.59
2023-07-25T02:43:30.030Z,99131.50
2023-07-25T02:44:32.626Z,99131.81
2023-07-25T02:45:35.957Z,99129.38
2023-07-25T02:46:38.336Z,99132.16
2023-07-25T02:47:40.736Z,99134.97
2023-07-25T02:48:43.228Z,99126.94
2023-07-25T02:49:46.408Z,99134.50
2023-07-25T02:50:48.838Z,99131.72
2023-07-25T02:51:51.409Z,99134.84
2023-07-25T02:52:53.812Z,99127.13
2023-07-25T02:53:56.215Z,99135.53
2023-07-25T02:54:58.615Z,99133.06
2023-07-25T02:56:00.974Z,99139.00
2023-07-25T02:57:03.332Z,99136.66
2023-07-25T02:58:05.889Z,99138.16
2023-07-25T02:59:09.404Z,99135.38
2023-07-25T03:00:12.768Z,99139.34
2023-07-25T03:01:16.183Z,99132.94
2023-07-25T03:02:18.612Z,99127.69
2023-07-25T03:03:21.075Z,99138.50
2023-07-25T03:04:23.388Z,99139.66
2023-07-25T03:05:28.569Z,99141.66
2023-07-25T03:06:30.886Z,99142.47
2023-07-25T03:07:33.211Z,99141.66
2023-07-25T03:08:36.606Z,99138.84
2023-07-25T03:09:39.038Z,99138.84
2023-07-25T03:10:41.638Z,99132.78
2023-07-25T03:11:44.062Z,99135.56
2023-07-25T03:12:46.494Z,99141.16
2023-07-25T03:13:49.016Z,99137.56
2023-07-25T03:14:51.323Z,99140.00
2023-07-25T03:15:53.764Z,99142.34
2023-07-25T03:16:57.533Z,99143.97
2023-07-25T03:17:59.895Z,99141.16
2023-07-25T03:19:02.287Z,99139.56
2023-07-25T03:20:05.022Z,99146.75
2023-07-25T03:21:09.855Z,99139.56
2023-07-25T03:22:12.195Z,99147.94
2023-07-25T03:23:14.605Z,99142.66
2023-07-25T03:24:17.268Z,99148.75
2023-07-25T03:25:19.719Z,99153.53
2023-07-25T03:26:22.224Z,99163.50
2023-07-25T03:27:25.036Z,99157.13
2023-07-25T03:28:27.491Z,99159.91
2023-07-25T03:29:29.873Z,99163.50
2023-07-25T03:30:32.349Z,99161.06
2023-07-25T03:31:34.931Z,99162.72
2023-07-25T03:32:37.468Z,99154.66
2023-07-25T03:33:40.020Z,99163.84
2023-07-25T03:34:42.677Z,99163.06
2023-07-25T03:35:45.081Z,99172.25
2023-07-25T03:36:47.454Z,99167.81
2023-07-25T03:37:49.822Z,99167.81
2023-07-25T03:38:52.506Z,99166.19
2023-07-25T03:39:54.887Z,99163.41
2023-07-25T03:40:57.370Z,99162.56
2023-07-25T03:41:59.826Z,99163.41
2023-07-25T03:43:02.630Z,99163.72
2023-07-25T03:44:05.217Z,99166.50
2023-07-25T03:45:08.337Z,99162.91
2023-07-25T03:46:11.694Z,99160.13
2023-07-25T03:47:14.188Z,99163.72
2023-07-25T03:48:16.612Z,99160.91
2023-07-25T03:49:19.164Z,99156.50
2023-07-25T03:50:21.758Z,99155.69
2023-07-25T03:51:24.084Z,99156.50
2023-07-25T03:52:26.639Z,99157.66
2023-07-25T03:53:29.001Z,99169.31
2023-07-25T03:54:31.353Z,99164.91
2023-07-25T03:55:33.753Z,99162.91
2023-07-25T03:56:36.868Z,99164.91
2023-07-25T03:57:39.365Z,99170.47
2023-07-25T03:58:41.793Z,99168.50
2023-07-25T03:59:44.102Z,99171.28
2023-07-25T04:00:46.486Z,99176.88
2023-07-25T04:01:48.979Z,99173.28
2023-07-25T04:03:00.772Z,99169.31
2023-07-25T04:04:11.947Z,99170.94
2023-07-25T04:05:16.044Z,99170.13
2023-07-25T04:06:19.212Z,99170.13
2023-07-25T04:07:21.846Z,99165.84
2023-07-25T04:08:24.147Z,99164.22
2023-07-25T04:09:26.748Z,99161.41
2023-07-25T04:10:29.385Z,99155.81
2023-07-25T04:11:32.295Z,99153.84
2023-07-25T04:12:34.970Z,99149.09
2023-07-25T04:13:37.433Z,99151.53
2023-07-25T04:14:41.440Z,99142.34
2023-07-25T04:15:43.847Z,99142.81
2023-07-25T04:16:46.329Z,99132.47
2023-07-25T04:17:48.657Z,99128.50
2023-07-25T04:18:51.018Z,99134.56
2023-07-25T04:19:54.464Z,99132.56
2023-07-25T04:20:56.809Z,99135.06
2023-07-25T04:21:59.169Z,99134.22
2023-07-25T04:23:02.335Z,99130.28
2023-07-25T04:24:07.183Z,99129.13
2023-07-25T04:25:11.117Z,99129.94
2023-07-25T04:26:13.547Z,99132.38
2023-07-25T04:27:15.930Z,99123.69
2023-07-25T04:28:18.666Z,99132.06
2023-07-25T04:29:20.998Z,99127.72
2023-07-25T04:30:23.371Z,99129.38
2023-07-25T04:31:25.719Z,99125.44
2023-07-25T04:32:28.125Z,99129.50
2023-07-25T04:33:30.577Z,99122.78
2023-07-25T04:34:32.993Z,99130.81
2023-07-25T04:35:35.565Z,99132.44
2023-07-25T04:36:37.956Z,99132.44
2023-07-25T04:37:40.256Z,99129.31
2023-07-25T04:38:42.803Z,99134.56
2023-07-25T04:39:45.218Z,99140.13
2023-07-25T04:40:47.680Z,99153.44
2023-07-25T04:41:50.143Z,99150.66
2023-07-25T04:42:52.931Z,99155.91
2023-07-25T04:43:55.258Z,99163.13
2023-07-25T04:44:59.174Z,99170.03
2023-07-25T04:46:01.820Z,99180.03
2023-07-25T04:47:04.517Z,99177.25
2023-07-25T04:48:09.965Z,99179.69
2023-07-25T04:49:14.998Z,99179.03
2023-07-25T04:50:17.447Z,99176.56
2023-07-25T04:51:19.794Z,99171.44
2023-07-25T04:52:22.224Z,99173.91
2023-07-25T04:53:24.752Z,99171.94
2023-07-25T04:54:27.054Z,99168.78
2023-07-25T04:55:29.452Z,99169.59
2023-07-25T04:56:32.128Z,99172.88
2023-07-25T04:57:35.361Z,99169.72
2023-07-25T04:58:39.859Z,99174.97
2023-07-25T04:59:43.454Z,99173.03
2023-07-25T05:00:46.124Z,99175.47
2023-07-25T05:01:48.706Z,99175.13
2023-07-25T05:02:51.376Z,99181.19
2023-07-25T05:03:54.040Z,99182.84
2023-07-25T05:04:56.568Z,99183.63
2023-07-25T05:05:58.936Z,99184.09
2023-07-25T05:07:01.429Z,99190.19
2023-07-25T05:08:03.968Z,99186.56
2023-07-25T05:09:06.326Z,99189.38
2023-07-25T05:10:09.315Z,99187.88
2023-07-25T05:11:12.547Z,99185.88
2023-07-25T05:12:15.200Z,99184.72
2023-07-25T05:13:17.662Z,99191.13
2023-07-25T05:14:20.007Z,99186.00
2023-07-25T05:15:22.893Z,99192.41
2023-07-25T05:16:25.493Z,99193.25
2023-07-25T05:17:27.965Z,99194.84
2023-07-25T05:18:30.590Z,99197.00
2023-07-25T05:19:33.777Z,99188.72
2023-07-25T05:20:37.307Z,99192.81
2023-07-25T05:21:39.664Z,99206.47
2023-07-25T05:22:42.020Z,99202.97
2023-07-25T05:23:44.432Z,99203.91
2023-07-25T05:24:46.878Z,99206.34
2023-07-25T05:25:49.301Z,99203.22
2023-07-25T05:26:51.815Z,99209.28
2023-07-25T05:27:54.262Z,99207.31
2023-07-25T05:28:56.670Z,99203.34
2023-07-25T05:30:00.422Z,99207.78
2023-07-25T05:31:05.031Z,99204.31
2023-07-25T05:32:08.061Z,99206.75
2023-07-25T05:33:10.616Z,99213.16
2023-07-25T05:34:13.132Z,99203.59
2023-07-25T05:35:15.940Z,99205.69
2023-07-25T05:36:18.278Z,99212.13
2023-07-25T05:37:20.823Z,99208.13
2023-07-25T05:38:23.253Z,99212.56
2023-07-25T05:39:25.649Z,99215.03
2023-07-25T05:40:28.537Z,99216.66
2023-07-25T05:41:31.194Z,99218.31
2023-07-25T05:42:35.017Z,99221.09
2023-07-25T05:43:37.391Z,99222.75
2023-07-25T05:44:40.158Z,99213.19
2023-07-25T05:45:42.546Z,99221.41
2023-07-25T05:46:44.901Z,99226.78
2023-07-25T05:47:47.836Z,99223.28
2023-07-25T05:48:51.393Z,99216.88
2023-07-25T05:49:53.729Z,99217.31
2023-07-25T05:50:56.271Z,99210.56
2023-07-25T05:51:58.701Z,99219.41
2023-07-25T05:53:01.086Z,99216.63
2023-07-25T05:54:03.905Z,99223.84
2023-07-25T05:55:08.086Z,99224.69
2023-07-25T05:56:10.468Z,99214.31
2023-07-25T05:57:13.357Z,99216.75
2023-07-25T05:58:17.074Z,99216.75
2023-07-25T05:59:19.528Z,99212.78
2023-07-25T06:00:22.596Z,99214.44
2023-07-25T06:01:25.232Z,99204.88
2023-07-25T06:02:27.815Z,99217.69
2023-07-25T06:03:30.322Z,99218.53
2023-07-25T06:04:32.879Z,99206.97
2023-07-25T06:05:36.390Z,99215.00
2023-07-25T06:06:39.151Z,99224.69
2023-07-25T06:07:41.509Z,99230.28
2023-07-25T06:08:43.912Z,99244.78
2023-07-25T06:09:46.328Z,99243.25
2023-07-25T06:10:48.883Z,99249.66
2023-07-25T06:11:52.585Z,99244.91
2023-07-25T06:12:55.010Z,99247.00
2023-07-25T06:13:57.902Z,99249.44
2023-07-25T06:15:00.279Z,99245.47
2023-07-25T06:16:02.841Z,99243.13
2023-07-25T06:17:05.488Z,99241.97
2023-07-25T06:18:08.955Z,99239.66
2023-07-25T06:19:13.881Z,99236.50
2023-07-25T06:20:17.614Z,99235.34
2023-07-25T06:21:20.146Z,99228.91
2023-07-25T06:22:22.542Z,99229.75
2023-07-25T06:23:24.876Z,99237.78
2023-07-25T06:24:27.360Z,99230.19
2023-07-25T06:25:30.596Z,99219.81
2023-07-25T06:26:33.139Z,99215.38
2023-07-25T06:27:35.701Z,99215.38
2023-07-25T06:28:38.195Z,99216.19
2023-07-25T06:29:40.710Z,99217.47
2023-07-25T06:30:44.252Z,99227.88
2023-07-25T06:31:46.639Z,99217.03
2023-07-25T06:32:52.098Z,99214.22
2023-07-25T06:33:56.489Z,99208.97
2023-07-25T06:34:58.916Z,99211.28
2023-07-25T06:36:01.409Z,99216.09
2023-07-25T06:37:03.921Z,99209.66
2023-07-25T06:38:06.289Z,99210.81
2023-07-25T06:39:09.283Z,99217.25
2023-07-25T06:40:12.122Z,99216.78
2023-07-25T06:41:14.552Z,99224.38
2023-07-25T06:42:17.012Z,99218.28
2023-07-25T06:43:22.391Z,99221.09
2023-07-25T06:44:26.329Z,99216.66
2023-07-25T06:45:30.982Z,99221.78
2023-07-25T06:46:33.488Z,99208.94
2023-07-25T06:47:35.848Z,99218.16
2023-07-25T06:48:38.168Z,99220.50
2023-07-25T06:49:40.456Z,99212.47
2023-07-25T06:50:43.524Z,99222.81
2023-07-25T06:51:47.322Z,99209.53
2023-07-25T06:52:51.658Z,99206.72
2023-07-25T06:53:53.984Z,99209.06
2023-07-25T06:54:56.557Z,99207.44
2023-07-25T06:55:58.984Z,99203.00
2023-07-25T06:57:01.387Z,99197.41
2023-07-25T06:58:03.787Z,99195.28
2023-07-25T06:59:06.094Z,99197.28
2023-07-25T07:00:09.375Z,99192.84
2023-07-25T07:01:11.772Z,99194.00
2023-07-25T07:02:14.181Z,99199.94
2023-07-25T07:03:16.686Z,99201.09
2023-07-25T07:04:19.100Z,99186.31
2023-07-25T07:05:30.506Z,99194.69
2023-07-25T07:06:33.709Z,99188.31
2023-07-25T07:07:36.106Z,99178.63
2023-07-25T07:08:38.523Z,99179.78
2023-07-25T07:09:40.998Z,99174.19
2023-07-25T07:10:43.329Z,99160.53
2023-07-25T07:11:45.761Z,99168.94
2023-07-25T07:12:49.349Z,99165.28
2023-07-25T07:13:51.829Z,99159.69
2023-07-25T07:14:54.283Z,99163.34
2023-07-25T07:15:56.902Z,99158.53
2023-07-25T07:16:59.553Z,99159.34
2023-07-25T07:18:02.000Z,99158.53
2023-07-25T07:19:05.261Z,99153.41
2023-07-25T07:20:08.098Z,99151.44
2023-07-25T07:21:10.430Z,99144.66
2023-07-25T07:22:12.760Z,99144.31
2023-07-25T07:23:15.471Z,99151.19
2023-07-25T07:24:17.861Z,99148.88
2023-07-25T07:25:20.325Z,99154.47
2023-07-25T07:26:23.969Z,99147.38
2023-07-25T07:27:26.408Z,99150.16
2023-07-25T07:28:28.871Z,99151.44
2023-07-25T07:29:31.815Z,99158.66
2023-07-25T07:30:34.346Z,99157.97
2023-07-25T07:31:36.809Z,99153.19
2023-07-25T07:32:39.280Z,99151.66
2023-07-25T07:33:42.243Z,99156.91
2023-07-25T07:34:44.735Z,99155.03
2023-07-25T07:35:47.299Z,99158.66
2023-07-25T07:36:49.935Z,99157.16
2023-07-25T07:37:53.986Z,99161.22
2023-07-25T07:38:56.288Z,99156.91
2023-07-25T07:39:58.813Z,99152.59
2023-07-25T07:41:01.213Z,99161.44
2023-07-25T07:42:03.802Z,99150.72
2023-07-25T07:43:06.196Z,99154.81
2023-07-25T07:44:08.522Z,99149.31
2023-07-25T07:45:11.096Z,99146.97
2023-07-25T07:46:13.694Z,99147.44
2023-07-25T07:47:16.123Z,99146.72
2023-07-25T07:48:18.837Z,99148.47
2023-07-25T07:49:21.409Z,99156.16
2023-07-25T07:50:23.919Z,99155.50
2023-07-25T07:51:26.731Z,99158.41
2023-07-25T07:52:41.087Z,99163.31
2023-07-25T07:53:45.253Z,99159.00
2023-07-25T07:54:47.617Z,99154.66
2023-07-25T07:55:50.255Z,99160.72
2023-07-25T07:56:52.691Z,99162.81
2023-07-25T07:57:55.011Z,99151.25
2023-07-25T07:58:57.478Z,99155.34
2023-07-25T08:00:00.532Z,99162.66
2023-07-25T08:01:03.143Z,99151.91
2023-07-25T08:02:05.577Z,99154.38
2023-07-25T08:03:08.144Z,99160.88
2023-07-25T08:04:10.679Z,99158.91
2023-07-25T08:05:13.628Z,99157.72
2023-07-25T08:06:16.162Z,99156.56
2023-07-25T08:07:18.728Z,99156.19
2023-07-25T08:08:22.177Z,99161.09
2023-07-25T08:09:24.668Z,99151.06
2023-07-25T08:10:30.040Z,99153.06
2023-07-25T08:11:32.467Z,99154.34
2023-07-25T08:12:35.429Z,99144.72
2023-07-25T08:13:37.972Z,99148.38
2023-07-25T08:14:40.263Z,99148.38
2023-07-25T08:15:45.160Z,99147.53
2023-07-25T08:16:47.615Z,99151.16
2023-07-25T08:17:51.652Z,99151.16
2023-07-25T08:18:54.191Z,99150.34
2023-07-25T08:19:56.761Z,99164.03
2023-07-25T08:21:00.277Z,99163.19
2023-07-25T08:22:02.637Z,99164.84
2023-07-25T08:23:05.187Z,99170.44
2023-07-25T08:24:07.740Z,99163.19
2023-07-25T08:25:10.896Z,99169.28
2023-07-25T08:26:13.303Z,99167.63
2023-07-25T08:27:15.657Z,99169.28
2023-07-25T08:28:18.611Z,99165.63
2023-07-25T08:29:21.015Z,99166.47
2023-07-25T08:30:23.891Z,99162.50
2023-07-25T08:31:26.577Z,99165.63
2023-07-25T08:32:28.950Z,99160.84
2023-07-25T08:33:36.090Z,99165.31
2023-07-25T08:34:40.210Z,99159.69
2023-07-25T08:35:43.986Z,99163.75
2023-07-25T08:36:46.646Z,99162.56
2023-07-25T08:37:48.994Z,99160.59
2023-07-25T08:38:51.363Z,99165.00
2023-07-25T08:39:53.681Z,99171.47
2023-07-25T08:41:06.937Z,99170.28
2023-07-25T08:42:12.289Z,99173.91
2023-07-25T08:43:18.012Z,99170.75
2023-07-25T08:44:24.261Z,99180.44
2023-07-25T08:45:27.139Z,99183.22
2023-07-25T08:46:31.733Z,99169.22
2023-07-25T08:47:39.399Z,99169.69
2023-07-25T08:48:43.339Z,99169.31
2023-07-25T08:49:49.019Z,99174.94
2023-07-25T08:50:54.110Z,99179.81
2023-07-25T08:51:59.582Z,99171.41
2023-07-25T08:53:10.326Z,99178.28
2023-07-25T08:54:31.170Z,99175.16
2023-07-25T08:55:34.182Z,99181.19
2023-07-25T08:56:36.834Z,99174.41
2023-07-25T08:57:40.098Z,99170.91
2023-07-25T08:58:45.774Z,99174.19
2023-07-25T08:59:51.595Z,99175.47
2023-07-25T09:00:55.487Z,99171.50
2023-07-25T09:01:58.868Z,99176.38
2023-07-25T09:03:02.534Z,99181.25
2023-07-25T09:04:11.241Z,99184.16
2023-07-25T09:05:13.982Z,99189.03
2023-07-25T09:06:16.859Z,99183.09
2023-07-25T09:07:19.524Z,99186.34
2023-07-25T09:08:21.904Z,99184.00
2023-07-25T09:09:24.986Z,99177.22
2023-07-25T09:10:29.281Z,99172.88
2023-07-25T09:11:34.331Z,99179.78
2023-07-25T09:12:37.060Z,99176.59
2023-07-25T09:13:39.677Z,99171.41
2023-07-25T09:14:43.598Z,99169.09
2023-07-25T09:15:46.173Z,99177.13
2023-07-25T09:16:48.641Z,99165.53
2023-07-25T09:17:54.653Z,99172.78
2023-07-25T09:18:57.287Z,99170.44
2023-07-25T09:20:02.998Z,99172.91
2023-07-25T09:21:05.677Z,99174.97
2023-07-25T09:22:27.502Z,99173.44
2023-07-25T09:23:30.072Z,99169.09
2023-07-25T09:24:39.789Z,99160.28
2023-07-25T09:25:42.469Z,99163.56
2023-07-25T09:26:52.478Z,99171.72
2023-07-25T09:27:56.353Z,99160.13
2023-07-25T09:29:01.276Z,99163.03
2023-07-25T09:30:12.098Z,99166.41
2023-07-25T09:31:14.602Z,99174.91
2023-07-25T09:32:26.430Z,99167.38
2023-07-25T09:33:29.906Z,99165.13
2023-07-25T09:34:32.266Z,99160.03
2023-07-25T09:35:34.602Z,99164.22
2023-07-25T09:36:37.125Z,99156.31
2023-07-25T09:37:39.735Z,99157.66
2023-07-25T09:38:55.783Z,99171.94
2023-07-25T09:39:58.269Z,99168.84
2023-07-25T09:41:03.824Z,99166.22
2023-07-25T09:42:08.364Z,99170.81
2023-07-25T09:43:21.467Z,99173.44
2023-07-25T09:44:23.840Z,99169.59
2023-07-25T09:45:26.249Z,99167.75
2023-07-25T09:46:28.738Z,99166.69
2023-07-25T09:47:35.415Z,99159.69
2023-07-25T09:48:41.037Z,99152.53
2023-07-25T09:49:51.997Z,99148.31
2023-07-25T09:50:54.450Z,99148.44
2023-07-25T09:52:01.349Z,99144.19
2023-07-25T09:53:12.428Z,99151.94
2023-07-25T09:54:14.798Z,99148.09
2023-07-25T09:55:17.272Z,99143.75
2023-07-25T09:56:24.413Z,99139.88
2023-07-25T09:57:26.782Z,99134.38
2023-07-25T09:58:32.253Z,99137.31
2023-07-25T09:59:39.701Z,99140.22
2023-07-25T10:00:45.029Z,99136.31
2023-07-25T10:01:52.192Z,99127.94
2023-07-25T10:02:55.642Z,99132.94
2023-07-25T10:03:59.542Z,99124.16
2023-07-25T10:05:02.561Z,99129.88
2023-07-25T10:06:05.978Z,99130.00
2023-07-25T10:07:09.205Z,99123.66
2023-07-25T10:08:13.053Z,99133.44
2023-07-25T10:09:16.457Z,99126.28
2023-07-25T10:10:19.146Z,99129.22
2023-07-25T10:11:23.672Z,99123.66
2023-07-25T10:12:26.059Z,99127.78
2023-07-25T10:13:30.129Z,99119.81
2023-07-25T10:14:38.412Z,99125.94
2023-07-25T10:15:41.547Z,99136.06
2023-07-25T10:16:44.089Z,99127.25
2023-07-25T10:17:47.838Z,99125.25
2023-07-25T10:18:54.896Z,99118.00
2023-07-25T10:19:57.389Z,99127.31
2023-07-25T10:20:59.907Z,99122.47
2023-07-25T10:22:02.365Z,99125.28
2023-07-25T10:23:12.447Z,99124.88
2023-07-25T10:24:15.328Z,99118.41
2023-07-25T10:25:27.666Z,99128.88
2023-07-25T10:26:30.211Z,99124.00
2023-07-25T10:27:35.292Z,99132.47
2023-07-25T10:28:38.147Z,99125.59
2023-07-25T10:29:46.987Z,99126.78
2023-07-25T10:30:50.060Z,99118.28
2023-07-25T10:31:53.144Z,99115.84
2023-07-25T10:33:00.139Z,99126.69
2023-07-25T10:34:03.336Z,99124.66
2023-07-25T10:35:06.056Z,99124.66
2023-07-25T10:36:23.557Z,99116.50
2023-07-25T10:37:41.738Z,99105.97
2023-07-25T10:38:46.605Z,99119.66
2023-07-25T10:40:10.095Z,99120.84
2023-07-25T10:41:20.029Z,99115.16
2023-07-25T10:42:51.864Z,99122.00
2023-07-25T10:44:03.288Z,99125.56
2023-07-25T10:45:07.735Z,99118.69
2023-07-25T10:46:16.931Z,99123.91
2023-07-25T10:47:45.292Z,99119.84
2023-07-25T10:48:49.154Z,99124.25
2023-07-25T10:49:59.212Z,99120.19
2023-07-25T10:51:09.035Z,99116.91
2023-07-25T10:52:11.384Z,99113.69
2023-07-25T10:53:17.881Z,99116.84
2023-07-25T10:54:25.801Z,99119.69
2023-07-25T10:55:28.590Z,99114.03
2023-07-25T10:56:31.106Z,99112.06
2023-07-25T10:57:34.155Z,99118.50
2023-07-25T10:58:39.613Z,99116.13
2023-07-25T11:00:02.119Z,99118.56
2023-07-25T11:01:05.196Z,99119.34
2023-07-25T11:02:31.682Z,99116.59
2023-07-25T11:03:37.129Z,99109.75
2023-07-25T11:04:39.517Z,99101.72
2023-07-25T11:05:41.962Z,99109.44
2023-07-25T11:06:45.178Z,99108.59
2023-07-25T11:07:52.105Z,99110.22
2023-07-25T11:08:54.611Z,99097.75
2023-07-25T11:09:57.977Z,99103.41
2023-07-25T11:11:04.677Z,99096.13
2023-07-25T11:12:07.813Z,99096.97
2023-07-25T11:13:10.459Z,99101.78
2023-07-25T11:14:19.354Z,99096.97
2023-07-25T11:15:36.459Z,99105.41
2023-07-25T11:16:47.701Z,99095.38
2023-07-25T11:17:50.833Z,99100.19
2023-07-25T11:18:53.358Z,99101.81
2023-07-25T11:20:12.353Z,99103.47
2023-07-25T11:21:17.157Z,99098.16
2023-07-25T11:22:19.933Z,99103.78
2023-07-25T11:23:22.837Z,99090.06
2023-07-25T11:24:25.400Z,99098.53
2023-07-25T11:25:29.309Z,99096.47
2023-07-25T11:26:31.691Z,99094.84
2023-07-25T11:27:34.131Z,99097.63
2023-07-25T11:28:40.694Z,99096.38
2023-07-25T11:29:43.546Z,99095.13
2023-07-25T11:30:46.392Z,99093.91
2023-07-25T11:31:50.749Z,99087.00
2023-07-25T11:32:55.037Z,99095.41
2023-07-25T11:33:57.722Z,99094.16
2023-07-25T11:35:02.361Z,99088.47
2023-07-25T11:36:04.938Z,99088.06
2023-07-25T11:37:12.722Z,99089.63
2023-07-25T11:38:15.151Z,99080.72
2023-07-25T11:39:19.231Z,99081.13
2023-07-25T11:40:29.196Z,99085.50
2023-07-25T11:41:33.905Z,99080.25
2023-07-25T11:42:39.988Z,99077.00
2023-07-25T11:43:45.656Z,99081.84
2023-07-25T11:44:49.672Z,99085.03
2023-07-25T11:45:54.204Z,99080.94
2023-07-25T11:46:57.405Z,99084.59
2023-07-25T11:48:00.145Z,99086.56
2023-07-25T11:49:03.596Z,99074.84
2023-07-25T11:50:22.263Z,99081.69
2023-07-25T11:51:29.447Z,99076.88
2023-07-25T11:52:33.094Z,99080.03
2023-07-25T11:53:35.748Z,99072.81
2023-07-25T11:54:38.869Z,99069.16
2023-07-25T11:55:42.086Z,99063.53
2023-07-25T11:56:46.246Z,99066.34
2023-07-25T11:57:50.486Z,99060.72
2023-07-25T11:58:53.063Z,99062.28
2023-07-25T11:59:57.095Z,99060.28
2023-07-25T12:00:59.572Z,99066.31
2023-07-25T12:02:08.628Z,99059.84
2023-07-25T12:03:27.161Z,99060.69
2023-07-25T12:04:29.564Z,99060.69
2023-07-25T12:05:32.729Z,99063.50
2023-07-25T12:06:36.025Z,99061.47
2023-07-25T12:07:59.679Z,99061.88
2023-07-25T12:09:02.251Z,99049.41
2023-07-25T12:10:05.022Z,99054.66
2023-07-25T12:11:16.799Z,99054.28
2023-07-25T12:12:20.152Z,99043.00
2023-07-25T12:13:22.758Z,99048.63
2023-07-25T12:14:25.163Z,99053.88
2023-07-25T12:15:51.351Z,99050.69
2023-07-25T12:16:53.801Z,99056.31
2023-07-25T12:17:56.469Z,99048.69
2023-07-25T12:19:01.583Z,99056.75
2023-07-25T12:20:14.530Z,99051.94
2023-07-25T12:21:24.539Z,99045.50
2023-07-25T12:22:26.995Z,99047.47
2023-07-25T12:23:34.524Z,99046.28
2023-07-25T12:24:42.118Z,99044.31
2023-07-25T12:25:44.656Z,99049.13
2023-07-25T12:26:55.746Z,99051.94
2023-07-25T12:27:58.588Z,99051.53
2023-07-25T12:29:00.992Z,99051.53
2023-07-25T12:30:04.350Z,99051.06